Blue Star Naxos — SZUI — position and weather

sailwx.info

Track history (hours):
 
Tides and Currents Weather Stations Pressure Air Temp Water Temp Dewpoint Dewpoint Depression Visibility Wind Speed Wind Dir Waves Ship Positions

Blue Star Naxos

Last reported at 2016-May-30 21:34 UTC. Time now 2016-May-31 05:52 UTC.
Position N 37°08' E 025°43'.

Length 124 m; draft 5 m.

Type: Passenger vessel. MMSI: 239923000.

Date/timePositionNaut miles runAvg speedWind from/ knotsBaromVisibWave heightAir tempDewpointWater temp
2016-May-30 21:34N 37°08' E 025°43'1616.3
2016-May-30 20:33N 37°06' E 025°22'18 8.8
2016-May-30 18:33N 37°10' E 025°01'6622.1
2016-May-30 15:33N 37°39' E 023°46'1918.8
2016-May-30 14:33N 37°57' E 023°38'0 0.0
2016-May-30 13:33N 37°57' E 023°38'0 0.0
2016-May-30 12:33N 37°57' E 023°38'7 6.8
2016-May-30 11:34N 37°50' E 023°40'2221.5
2016-May-30 10:33N 37°36' E 024°00'4522.6
2016-May-30 08:33N 37°15' E 024°51'2613.2
2016-May-30 06:34N 37°06' E 025°22'5 4.8
2016-May-30 05:34N 37°03' E 025°18'4 0.5
2016-May-29 21:23N 36°59' E 025°20'810.4
2016-May-29 20:34N 37°08' E 025°20'2612.8
2016-May-29 18:32N 37°26' E 024°57'1212.3
2016-May-29 17:34N 37°32' E 024°44'4522.6
2016-May-29 15:34N 37°39' E 023°48'1919.1
2016-May-29 14:33N 37°56' E 023°38'1 0.5
2016-May-29 13:33N 37°57' E 023°38'6 3.1
2016-May-29 11:34N 37°51' E 023°40'2221.3
2016-May-29 10:33N 37°36' E 023°60'4522.8
2016-May-29 08:33N 37°15' E 024°50'2613.1
2016-May-29 06:34N 37°07' E 025°21'7 0.7
2016-May-28 20:33N 36°60' E 025°19'1110.6
2016-May-28 19:33N 37°10' E 025°16'1110.5
2016-May-28 18:33N 37°07' E 025°04'5622.7
2016-May-28 16:05N 37°30' E 023°59'1222.9
2016-May-28 15:33N 37°37' E 023°47'2120.8
2016-May-28 14:33N 37°56' E 023°38'1 0.6
2016-May-28 13:33N 37°57' E 023°38'0 0.0
2016-May-28 12:33N 37°57' E 023°38'6 5.7
2016-May-28 11:34N 37°51' E 023°39'2221.5
2016-May-28 10:33N 37°36' E 023°59'4722.8
2016-May-28 08:30N 37°15' E 024°52'2613.3
2016-May-28 06:34N 37°06' E 025°22'6 5.9
2016-May-28 05:33N 37°01' E 025°19'2 0.2
2016-May-27 21:07N 36°59' E 025°20'713.0
2016-May-27 20:33N 37°06' E 025°22'17 8.3
2016-May-27 18:33N 37°07' E 025°02'6722.4
2016-May-27 15:33N 37°39' E 023°47'1919.0
2016-May-27 14:33N 37°57' E 023°38'0 0.0
2016-May-27 13:33N 37°57' E 023°38'0 0.0
2016-May-27 12:33N 37°57' E 023°38'6 6.0
2016-May-27 11:33N 37°51' E 023°40'2221.7
2016-May-27 10:33N 37°36' E 023°60'4622.8
2016-May-27 08:32N 37°15' E 024°51'2613.2
2016-May-27 06:34N 37°06' E 025°22'1511.4
2016-May-27 05:14N 37°09' E 025°41'4 0.5
2016-May-26 22:15N 37°07' E 025°44'1420.1
2016-May-26 21:33N 37°11' E 025°27'8 7.8
2016-May-26 20:33N 37°10' E 025°18'2610.6
2016-May-26 18:04N 37°30' E 024°56'5622.2
2016-May-26 15:33N 37°39' E 023°47'1919.3
2016-May-26 14:33N 37°57' E 023°38'0 0.2
2016-May-26 13:33N 37°57' E 023°38'0 0.0
2016-May-26 12:33N 37°57' E 023°38'7 7.2
2016-May-26 11:34N 37°50' E 023°40'2221.3
2016-May-26 10:33N 37°36' E 024°01'4422.4
2016-May-26 08:33N 37°15' E 024°51'2613.0
2016-May-26 06:33N 37°07' E 025°21'1511.6
2016-May-26 05:18N 37°10' E 025°39'4 0.6
2016-May-25 21:33N 37°07' E 025°43'1717.0
2016-May-25 20:34N 37°06' E 025°22'16 8.0
2016-May-25 18:33N 37°09' E 025°02'6722.2
2016-May-25 15:33N 37°38' E 023°47'1919.6
2016-May-25 14:33N 37°57' E 023°38'0 0.3
2016-May-25 13:34N 37°57' E 023°38'0 0.0
2016-May-25 12:34N 37°57' E 023°38'7 7.4
2016-May-25 11:34N 37°50' E 023°40'6621.8
2016-May-25 08:33N 37°15' E 024°51'1912.5
2016-May-25 07:03N 37°09' E 025°13'815.9
2016-May-25 06:34N 37°06' E 025°22'7 6.9
2016-May-25 05:33N 36°60' E 025°20'5 0.6
2016-May-24 21:33N 37°05' E 025°19'6 6.5
2016-May-24 20:34N 37°10' E 025°14'7 6.6
2016-May-24 19:32N 37°09' E 025°06'1914.8
2016-May-24 18:14N 37°26' E 024°57'5620.8
2016-May-24 15:32N 37°39' E 023°48'1919.8
2016-May-24 14:33N 37°56' E 023°38'1 0.7
2016-May-24 13:33N 37°57' E 023°38'0 0.0
2016-May-24 12:33N 37°57' E 023°38'7 7.3
2016-May-24 11:34N 37°50' E 023°40'6621.9
2016-May-24 08:33N 37°15' E 024°51'2613.1
2016-May-24 06:33N 37°06' E 025°22'1411.2
2016-May-24 05:19N 37°10' E 025°39'5 0.7
2016-May-23 21:32N 37°07' E 025°44'1818.3
2016-May-23 20:34N 37°06' E 025°22'18 9.1
2016-May-23 18:34N 37°10' E 024°60'5421.4
2016-May-23 16:04N 37°35' E 023°60'1121.9
2016-May-23 15:33N 37°39' E 023°47'1919.2
2016-May-23 14:33N 37°56' E 023°38'0 0.5
2016-May-23 13:33N 37°57' E 023°38'0 0.0
2016-May-23 12:33N 37°57' E 023°38'0 0.0
2016-May-23 11:33N 37°57' E 023°38'1211.6
2016-May-23 10:33N 37°46' E 023°43'2311.5
2016-May-23 08:34N 37°60' E 024°06'  
Track history (hours):
 
Tides and Currents Weather Stations Pressure Air Temp Water Temp Dewpoint Dewpoint Depression Visibility Wind Speed Wind Dir Waves Ship Positions

Blue Star Naxos

Last reported at 2016-May-30 21:34 UTC. Time now 2016-May-31 05:52 UTC.
Position N 37°08' E 025°43'.

Length 124 m; draft 5 m.

Type: Passenger vessel. MMSI: 239923000.

Date/timePositionNaut miles runAvg speedWind from/ knotsBaromVisibWave heightAir tempDewpointWater temp
2016-May-30 21:34N 37°08' E 025°43'1616.3
2016-May-30 20:33N 37°06' E 025°22'18 8.8
2016-May-30 18:33N 37°10' E 025°01'6622.1
2016-May-30 15:33N 37°39' E 023°46'1918.8
2016-May-30 14:33N 37°57' E 023°38'0 0.0
2016-May-30 13:33N 37°57' E 023°38'0 0.0
2016-May-30 12:33N 37°57' E 023°38'7 6.8
2016-May-30 11:34N 37°50' E 023°40'2221.5
2016-May-30 10:33N 37°36' E 024°00'4522.6
2016-May-30 08:33N 37°15' E 024°51'2613.2
2016-May-30 06:34N 37°06' E 025°22'5 4.8
2016-May-30 05:34N 37°03' E 025°18'4 0.5
2016-May-29 21:23N 36°59' E 025°20'810.4
2016-May-29 20:34N 37°08' E 025°20'2612.8
2016-May-29 18:32N 37°26' E 024°57'1212.3
2016-May-29 17:34N 37°32' E 024°44'4522.6
2016-May-29 15:34N 37°39' E 023°48'1919.1
2016-May-29 14:33N 37°56' E 023°38'1 0.5
2016-May-29 13:33N 37°57' E 023°38'6 3.1
2016-May-29 11:34N 37°51' E 023°40'2221.3
2016-May-29 10:33N 37°36' E 023°60'4522.8
2016-May-29 08:33N 37°15' E 024°50'2613.1
2016-May-29 06:34N 37°07' E 025°21'7 0.7
2016-May-28 20:33N 36°60' E 025°19'1110.6
2016-May-28 19:33N 37°10' E 025°16'1110.5
2016-May-28 18:33N 37°07' E 025°04'5622.7
2016-May-28 16:05N 37°30' E 023°59'1222.9
2016-May-28 15:33N 37°37' E 023°47'2120.8
2016-May-28 14:33N 37°56' E 023°38'1 0.6
2016-May-28 13:33N 37°57' E 023°38'0 0.0
2016-May-28 12:33N 37°57' E 023°38'6 5.7
2016-May-28 11:34N 37°51' E 023°39'2221.5
2016-May-28 10:33N 37°36' E 023°59'4722.8
2016-May-28 08:30N 37°15' E 024°52'2613.3
2016-May-28 06:34N 37°06' E 025°22'6 5.9
2016-May-28 05:33N 37°01' E 025°19'2 0.2
2016-May-27 21:07N 36°59' E 025°20'713.0
2016-May-27 20:33N 37°06' E 025°22'17 8.3
2016-May-27 18:33N 37°07' E 025°02'6722.4
2016-May-27 15:33N 37°39' E 023°47'1919.0
2016-May-27 14:33N 37°57' E 023°38'0 0.0
2016-May-27 13:33N 37°57' E 023°38'0 0.0
2016-May-27 12:33N 37°57' E 023°38'6 6.0
2016-May-27 11:33N 37°51' E 023°40'2221.7
2016-May-27 10:33N 37°36' E 023°60'4622.8
2016-May-27 08:32N 37°15' E 024°51'2613.2
2016-May-27 06:34N 37°06' E 025°22'1511.4
2016-May-27 05:14N 37°09' E 025°41'4 0.5
2016-May-26 22:15N 37°07' E 025°44'1420.1
2016-May-26 21:33N 37°11' E 025°27'8 7.8
2016-May-26 20:33N 37°10' E 025°18'2610.6
2016-May-26 18:04N 37°30' E 024°56'5622.2
2016-May-26 15:33N 37°39' E 023°47'1919.3
2016-May-26 14:33N 37°57' E 023°38'0 0.2
2016-May-26 13:33N 37°57' E 023°38'0 0.0
2016-May-26 12:33N 37°57' E 023°38'7 7.2
2016-May-26 11:34N 37°50' E 023°40'2221.3
2016-May-26 10:33N 37°36' E 024°01'4422.4
2016-May-26 08:33N 37°15' E 024°51'2613.0
2016-May-26 06:33N 37°07' E 025°21'1511.6
2016-May-26 05:18N 37°10' E 025°39'4 0.6
2016-May-25 21:33N 37°07' E 025°43'1717.0
2016-May-25 20:34N 37°06' E 025°22'16 8.0
2016-May-25 18:33N 37°09' E 025°02'6722.2
2016-May-25 15:33N 37°38' E 023°47'1919.6
2016-May-25 14:33N 37°57' E 023°38'0 0.3
2016-May-25 13:34N 37°57' E 023°38'0 0.0
2016-May-25 12:34N 37°57' E 023°38'7 7.4
2016-May-25 11:34N 37°50' E 023°40'6621.8
2016-May-25 08:33N 37°15' E 024°51'1912.5
2016-May-25 07:03N 37°09' E 025°13'815.9
2016-May-25 06:34N 37°06' E 025°22'7 6.9
2016-May-25 05:33N 36°60' E 025°20'5 0.6
2016-May-24 21:33N 37°05' E 025°19'6 6.5
2016-May-24 20:34N 37°10' E 025°14'7 6.6
2016-May-24 19:32N 37°09' E 025°06'1914.8
2016-May-24 18:14N 37°26' E 024°57'5620.8
2016-May-24 15:32N 37°39' E 023°48'1919.8
2016-May-24 14:33N 37°56' E 023°38'1 0.7
2016-May-24 13:33N 37°57' E 023°38'0 0.0
2016-May-24 12:33N 37°57' E 023°38'7 7.3
2016-May-24 11:34N 37°50' E 023°40'6621.9
2016-May-24 08:33N 37°15' E 024°51'2613.1
2016-May-24 06:33N 37°06' E 025°22'1411.2
2016-May-24 05:19N 37°10' E 025°39'5 0.7
2016-May-23 21:32N 37°07' E 025°44'1818.3
2016-May-23 20:34N 37°06' E 025°22'18 9.1
2016-May-23 18:34N 37°10' E 024°60'5421.4
2016-May-23 16:04N 37°35' E 023°60'1121.9
2016-May-23 15:33N 37°39' E 023°47'1919.2
2016-May-23 14:33N 37°56' E 023°38'0 0.5
2016-May-23 13:33N 37°57' E 023°38'0 0.0
2016-May-23 12:33N 37°57' E 023°38'0 0.0
2016-May-23 11:33N 37°57' E 023°38'1211.6
2016-May-23 10:33N 37°46' E 023°43'2311.5
2016-May-23 08:34N 37°60' E 024°06'  

Dump ship's entire track history